LiveATC.Net - Listen to live air traffic control over the Internet!

Airport/ARTCC Code
Frequency Search
(e.g., 124.400, 128.75)
Site-wide search
 


Browse Feeds
Top 50 Feeds
HF Oceanic Feeds
Coverage Map
Bad Weather Areas

LiveATC FAQ
Offer LiveATC feed
Contact LiveATC.net
Press Inquiries

LiveATC on iPhone
LiveATC on Android

LiveATC Mobile
(Mobile browser)

ATC Audio Archives
Interesting Recordings

LiveATC Forums

Home Page
About LiveATC.net


Terms of Use
Privacy Policy

AIRMETs/SIGMETs

FAA Airport Status
NAS Status
Arrival Demand


Server Software By:
Icecast.org
Liquidsoap


Current Potentially Bad Weather Airports
(updated every 30 minutes - sorted alphabetically by ICAO code)



This page lists LiveATC.net airport areas that may be interesting to listen to because of challenging flying (weather) conditions. Challenging weather conditions include low ceilings, limited visibility, high or gusty winds, or thunderstorms.

Updated: Sun Dec 4 17:40:01 UTC 2022
Click on airport name to go to that airport area's feeds.

CYFB CTAF/RDO Iqaluit Airport (Iqaluit, CA-NU)
WX MAP UNAVAILABLENearest METAR:
CYFB 041700Z 13016G21KT 20SM DRSN OVC009 M02/M03 A2945 RMK ST8 SLP977
CYSB Gnd/Twr/Center Sudbury Airport (Sudbury, CA-ON)
WX MAP UNAVAILABLENearest METAR:
CYSB 041726Z 25012KT 4SM -SN SCT008 OVC014 M04/M06 A2985 RMK SF4SC4 SLP132
CYTS ATIS Timmins/Victor M. Power Airport (Timmins, CA-ON)
WX MAP UNAVAILABLENearest METAR:
CYTS 041700Z 20006KT 180V240 3SM -SN BKN015 OVC040 M07/M10 A2977 RMK SC5SC3 SLP107
CYVO Gnd/RDO/Center Val-D'Or Airport (Val-D'Or, CA-QC)
WX MAP UNAVAILABLENearest METAR:
CYVO 041710Z 18011G16KT 2SM -SN OVC020 M07/M09 A2983 RMK SN6SC2 SLP131
CYWG Del/Gnd/Twr Winnipeg James Armstrong Richardson International Airport (Winnipeg, CA-MB)
WX MAP UNAVAILABLENearest METAR:
CYWG 041700Z 19016KT 1/2SM R36/P6000FT/N R31/P6000FT/N SN VV013 M09/M11 A2957 RMK SN8 /S01/ SLP037
CYYB Toronto Center North Bay Airport (North Bay, CA-ON)
WX MAP UNAVAILABLENearest METAR:
CYYB 041700Z 21012G21KT 1 1/2SM -SHSN BKN005 OVC011 M03/M04 A2987 RMK SF5CU3 SLP140
CYZF Gnd/Twr/Center Yellowknife Airport (Yellowknife, CA-NT)
WX MAP UNAVAILABLENearest METAR:
CYZF 041700Z 33016G22KT 10SM -SN DRSN FEW025 BKN052 M19/M24 A3009 RMK SC1SC7 SC TR SLP213
EHEH Approach #1 Eindhoven Airport (Eindhoven, Netherlands)
WX MAP UNAVAILABLENearest METAR:
EHEH 041725Z AUTO 06008KT 020V090 9999 OVC010 02/M01 Q1017 GRN TEMPO OVC008
ENBO Approach Bodo Airport (Bodo, Norway)
WX MAP UNAVAILABLENearest METAR:
ENBO 041720Z 10016KT 9999 -SN SCT005 BKN009 OVC012 M02/M03 Q1026 TEMPO 4000 BKN012
EPKK Tower/App John Paul II Balice International Airport (Krakow, Poland)
WX MAP UNAVAILABLENearest METAR:
EPKK 041700Z 06012KT 8000 OVC005 01/00 Q1022
EPKT Del/Twr/App Katowice International Airport (Katowice, Poland)
WX MAP UNAVAILABLENearest METAR:
EPKT 041700Z 10007KT 5000 BR OVC003 01/01 Q1021
EPLL Tower Lublinek Airport (Lodz, Poland)
WX MAP UNAVAILABLENearest METAR:
EPLL 041700Z 10009KT 070V130 3400 BR OVC003 01/00 Q1023
EPPO Twr/App/FIS Poznan-Lawica Henryk Wieniawski Airport (Poznan, Poland)
WX MAP UNAVAILABLENearest METAR:
EPPO 041700Z 11013KT 4200 BR OVC004 02/02 Q1021
ESMS Tower Malmo Airport (Svedala, Sweden)
WX MAP UNAVAILABLENearest METAR:
ESMS 041720Z 05014KT 9999 OVC007 03/02 Q1025
ESOE Tower/Control Orebro Airport (Orebro, Sweden)
WX MAP UNAVAILABLENearest METAR:
ESOE 041720Z AUTO 05008KT 9999 OVC008/// M02/M04 Q1034
EVRA Tower/Guard Riga International Airport (Riga, Latvia)
WX MAP UNAVAILABLENearest METAR:
EVRA 041720Z 14005KT 7000 -SN OVC007 M01/M02 Q1032 NOSIG
EYVI Twr/App/Misc Vilnius International Airport (Vilnius, Lithuania)
WX MAP UNAVAILABLENearest METAR:
EYVI 041720Z 14010KT 8000 OVC005 M03/M04 Q1032 NOSIG
FMMI Twr/App/Center Ivato International Airport (Antananarivo, Madagascar)
WX MAP UNAVAILABLENearest METAR:
FMMI 041714Z 25007KT 210V290 5000 -TSRA FEW010 BKN020CB 17/17 Q1020 WS ALL RWY NOSIG
KAEG Twr/App Double Eagle II Airport (Albuquerque, US-NM)
kaegNearest METAR:
KAEG 041700Z 17004KT 1/2SM FG OVC003 06/06 A3030
KAHN Tower Athens/Ben Epps Airport (Athens, US-GA)
kahnNearest METAR:
KAHN 041651Z 33003KT 10SM OVC006 11/09 A3022 RMK AO2 SLP235 T01110089
KBDN CTAF Bend Municipal Airport (Bend, US-OR)
kbdnNearest METAR:
KBDN 041715Z AUTO 00000KT 1 1/4SM -SN BKN002 OVC006 M06/M08 A2994 RMK AO2
KBFM Ground/Tower Mobile Downtown Airport (Mobile, US-AL)
kbfmNearest METAR:
KBFM 041653Z 03005KT 10SM OVC005 20/18 A3026 RMK AO2 SLP247 T02000178
KBHM Del/Gnd/Twr/App Birmingham-Shuttlesworth International Airport (Birmingham, US-AL)
kbhmNearest METAR:
KBHM 041653Z 00000KT 6SM BR OVC008 12/09 A3028 RMK AO2 CIG 004V009 SLP251 T01170094
KBOI Twr/App Boise Air Terminal/Gowen Field (Boise, US-ID)
kboiNearest METAR:
KBOI 041709Z 00000KT 6SM -SN BR SCT022 OVC038 M03/M04 A2999 RMK AO2 P0001 T10281039
KBTR/KHZR/L38 Del/Gnd/Twr/App/CTAF Baton Rouge Metropolitan Airport - Ryan Field (Baton Rouge, US-LA)
kbtrNearest METAR:
KBTR 041653Z 31003KT 10SM OVC007 19/16 A3027 RMK AO2 SLP249 T01890161
KCIC Tower/ZOA42 Chico Municipal Airport (Chico, US-CA)
kcicNearest METAR:
KCIC 041647Z 13016KT 8SM -RA OVC008 08/08 A3005
KCQF CTAF/Misc H L Sonny Callahan Airport (Fairhope, US-AL)
kcqfNearest METAR:
KCQF 041715Z AUTO 34003KT 10SM OVC005 19/18 A3023 RMK AO2
KGPT Gnd/Twr/App Gulfport-Biloxi International Airport (Gulfport, US-MS)
kgptNearest METAR:
KGPT 041653Z COR 02003KT 7SM OVC002 18/17 A3026 RMK AO2 SLP244 T01830167
KHIO Tower (Both) Portland-Hillsboro Airport (Portland, US-OR)
khioNearest METAR:
KHIO 041653Z COR 09012G18KT 10SM -SN BKN055 OVC070 04/M04 A2994 RMK AO2 SLP140 T00441044
KLRD Ground/Tower Laredo International Airport (Laredo, US-TX)
klrdNearest METAR:
KLRD 041715Z 04005KT 1SM BR OVC003 14/14 A3026 RMK AO2 RAE1658 P0000
KMMV CTAF Mc Minnville Municipal Airport (Mc Minnville, US-OR)
kmmvNearest METAR:
KMMV 041718Z AUTO 02005KT 9SM -SN BKN027 OVC034 03/M03 A2993 RMK AO2 SNB13 P0000 T00331028
KMSY App/Dep Louis Armstrong New Orleans International Airport (New Orleans, US-LA)
kmsyNearest METAR:
KMSY 041653Z 34003KT 5SM BR OVC005 19/18 A3027 RMK AO2 SLP252 T01890178 $
KPDX ATIS Portland International Airport (Portland, US-OR)
kpdxNearest METAR:
KPDX 041722Z 12015G22KT 1SM R10R/P6000FT -SN FEW010 SCT025 OVC050 02/M02 A2997 RMK AO2 TWR VIS 2 SNB01 P0000 T00221017
KJKA Twr/CTAF Jack Edwards National Airport (Gulf Shores, US-AL)
kjkaNearest METAR:
KJKA 041657Z VRB04KT 5SM BR OVC005 20/19 A3024
KNDZ/KNSE Twr/App Whiting Field Naval Air Station North (Milton, US-FL)
kndzNearest METAR:
KNDZ 041707Z AUTO VRB03KT 10SM OVC006 19/18 A3023 RMK AO2 T01940183 $
KNDZ/KNSE Twr/App Whiting Field Naval Air Station North (Milton, US-FL)
knseNearest METAR:
KNSE 041656Z AUTO 35003KT 10SM OVC004 18/18 A3024 RMK AO2 SLP226 T01830178 $
KRDM ATIS Roberts Field Airport (Redmond, US-OR)
krdmNearest METAR:
KRDM 041727Z 30004KT 3/4SM -SN BR VV015 M05/M07 A2994 RMK AO2 P0001 T10501072
KSAT Tower San Antonio International Airport (San Antonio, US-TX)
ksatNearest METAR:
KSAT 041651Z 04005KT 6SM -DZ BR OVC007 12/11 A3029 RMK AO2 RAE22DZB22 SLP246 P0001 T01220106
KSBA Tower Santa Barbara Municipal Airport (Santa Barbara, US-CA)
ksbaNearest METAR:
KSBA 041653Z 07007KT 2SM -RA BR OVC005 14/13 A3012
KSUN Ground/Tower Friedman Memorial Airport (Hailey, US-ID)
ksunNearest METAR:
KSUN 041655Z 32004KT 3/4SM -SN OVC009 M03/M03 A3002
KTOC CTAF Toccoa Airport-RG Letourneau Field (Toccoa, US-GA)
ktocNearest METAR:
KTOC 041710Z AUTO 08004KT 10SM OVC009 10/08 A3023 RMK AO2 T01040084
KTRK UNICOM Truckee-Tahoe Airport (Truckee, US-CA)
ktrkNearest METAR:
KTRK 041645Z 19017G23KT 5SM -SN BKN011 BKN018 OVC026 01/M01 A2995
KTTD Tower Portland-Troutdale Airport (Portland, US-OR)
kttdNearest METAR:
KTTD 041724Z 10018G24KT 1/4SM +SN VV011 01/M02 A2999 RMK AO2 PK WND 10028/1706 P0000 T00111017
KTVL CTAF Lake Tahoe Airport (South Lake Tahoe, US-CA)
ktvlNearest METAR:
KTVL 041712Z AUTO 21006G18KT 3/4SM -SN BR VV011 01/M01 A2997 RMK AO2 P0001 T00061011
KUAO Tower Aurora State Airport (Aurora, US-OR)
kuaoNearest METAR:
KUAO 041725Z 05003KT 2 1/2SM -SN OVC028 02/M01 A2995 RMK AO2 UPE02SNB02 P0000 T00221011
LROP Twr/App/Radar Otopeni International Airport (Bucharest, Romania)
WX MAP UNAVAILABLENearest METAR:
LROP 041700Z 05010KT 4000 -DZ BR OVC003 02/02 Q1031 NOSIG
LSZB App/Dep Bern-Belp Airport (Bern, Switzerland)
WX MAP UNAVAILABLENearest METAR:
LSZB 041720Z 31005KT 8000 OVC009 03/01 Q1012
LSZG Tower Grenchen Airport (Grenchen, Switzerland)
WX MAP UNAVAILABLENearest METAR:
LSZG 041720Z AUTO VRB02KT 9999 OVC009 03/02 Q1012
LSMD Tower Dubendorf Air Base (Dubendorf, Switzerland)
WX MAP UNAVAILABLENearest METAR:
LSMD 041720Z AUTO VRB01KT 9999NDV OVC007 02/00 Q1012 RMK
LUKK Air to Air Chisinau International Airport (Chisinau, Moldova)
WX MAP UNAVAILABLENearest METAR:
LUKK 041730Z 09011KT 6000 -SN BKN004 OVC007 M03/M03 Q1035 TEMPO 3000 SN BR OVC002
MMMY Tower/Approach General Mariano Escobedo International Airport (Monterrey, Mexico)
WX MAP UNAVAILABLENearest METAR:
MMMY 041640Z 15003KT 1SM -DZ BR OVC003 18/18 A3024 RMK 60025 8/5//
PABE ATIS Bethel Airport (Bethel, US-AK)
WX MAP UNAVAILABLENearest METAR:
PABE 041653Z AUTO 13022G30KT 10SM -RA OVC070 04/M01 A2970 RMK AO2 PK WND 15034/1639 RAB1558E08B37 SLP058 P0000 T00441011 TSNO
USTR Gnd/Twr/App Roshchino International Airport (Tyumen, Russia)
WX MAP UNAVAILABLENearest METAR:
USTR 041700Z 03003MPS 360V060 9999 BKN009 OVC016CB M09/M10 Q1034 R30/490535 R21/490535 TEMPO 1000 -SHSN BR VV003